createdAt,value
2022-11-26T00:14:00.230Z,37
2022-11-26T00:29:09.884Z,36
2022-11-26T00:44:19.841Z,33.1
2022-11-26T00:59:29.786Z,30.2
2022-11-26T01:14:40.685Z,35.9
2022-11-26T01:29:50.527Z,27.8
2022-11-26T01:45:00.058Z,32.6
2022-11-26T02:00:10.541Z,35.5
2022-11-26T02:15:20.078Z,38.6
2022-11-26T02:30:29.677Z,37.8
2022-11-26T02:45:40.088Z,37.7
2022-11-26T03:00:49.966Z,36.3
2022-11-26T03:16:00.128Z,39.5
2022-11-26T03:31:10.168Z,37.5
2022-11-26T03:46:19.935Z,35.9
2022-11-26T04:01:29.820Z,43.5
2022-11-26T04:16:39.768Z,37.5
2022-11-26T04:31:49.770Z,38.3
2022-11-26T04:46:59.367Z,37.9
2022-11-26T05:02:09.521Z,37.1
2022-11-26T05:17:18.760Z,35.2
2022-11-26T05:32:28.334Z,32.3
2022-11-26T05:47:37.361Z,35.6
2022-11-26T06:02:47.184Z,29.7
2022-11-26T06:17:56.828Z,31.4
2022-11-26T06:33:07.949Z,21.7
2022-11-26T06:48:17.369Z,36
2022-11-26T07:03:33.751Z,26.5
2022-11-26T07:18:43.357Z,35.2
2022-11-26T07:33:52.466Z,28.5
2022-11-26T07:49:02.245Z,31.7
2022-11-26T08:04:11.723Z,29.3
2022-11-26T08:19:24.650Z,33.4
2022-11-26T08:34:34.912Z,34.2
2022-11-26T08:49:44.744Z,38.3
2022-11-26T09:04:54.388Z,47.2
2022-11-26T09:20:04.353Z,42.3
2022-11-26T09:35:14.278Z,42.5
2022-11-26T09:50:23.998Z,47.6
2022-11-26T10:05:33.937Z,43.4
2022-11-26T10:20:43.401Z,46.1
2022-11-26T10:35:53.616Z,49.7
2022-11-26T10:51:03.534Z,46.6
2022-11-26T11:08:34.444Z,56.5
2022-11-26T11:24:09.644Z,52.7
2022-11-26T11:39:19.516Z,46.3
2022-11-26T11:54:29.103Z,53.4
2022-11-26T12:09:38.849Z,52.2
2022-11-26T12:24:48.748Z,56.7
2022-11-26T12:39:58.859Z,39.8
2022-11-26T12:55:10.913Z,44.8
2022-11-26T13:10:20.712Z,44.1
2022-11-26T13:25:30.257Z,40.1
2022-11-26T13:40:39.633Z,33.9
2022-11-26T13:55:49.069Z,42.6
2022-11-26T14:10:58.326Z,50.5
2022-11-26T14:26:10.907Z,42.8
2022-11-26T14:41:20.106Z,36.7
2022-11-26T14:56:29.615Z,33
2022-11-26T15:11:39.160Z,26.1
2022-11-26T15:26:48.259Z,47
2022-11-26T15:41:57.759Z,61.1
2022-11-26T15:57:09.314Z,50
2022-11-26T16:12:18.989Z,49.9
2022-11-26T16:27:29.476Z,54.5
2022-11-26T16:42:39.493Z,42.6
2022-11-26T16:57:48.959Z,44
2022-11-26T17:12:58.325Z,33.9
2022-11-26T17:28:07.909Z,31.6
2022-11-26T17:43:17.584Z,28.8
2022-11-26T17:58:26.991Z,33.8
2022-11-26T18:14:25.752Z,34.1
2022-11-26T18:29:39.894Z,23.2
2022-11-26T18:44:50.616Z,24.6
2022-11-26T19:00:00.072Z,21.2
2022-11-26T19:15:10.715Z,26.5
2022-11-26T19:30:19.971Z,21.1
2022-11-26T19:45:29.313Z,22.3
2022-11-26T20:00:38.813Z,13
2022-11-26T20:15:48.376Z,19.2
2022-11-26T20:30:57.926Z,27
2022-11-26T20:46:07.795Z,21.7
2022-11-26T21:01:17.307Z,15.5
2022-11-26T21:16:27.342Z,14.3
2022-11-26T21:31:37.010Z,22.1
2022-11-26T21:46:46.102Z,16.6
2022-11-26T22:01:56.214Z,23
2022-11-26T22:17:05.675Z,20.3
2022-11-26T22:32:15.382Z,18.8
2022-11-26T22:47:24.476Z,26.4
2022-11-26T23:02:34.305Z,24.5
2022-11-26T23:17:44.058Z,24.4
2022-11-26T23:32:53.604Z,23.7
2022-11-26T23:48:02.551Z,24.6
